sensor_id;sensor_type;location;lat;lon;timestamp;P1;durP1;ratioP1;P2;durP2;ratioP2
61373;SDS011;47242;48.158;-1.586;2022-09-09T00:04:00;7.22;;;2.03;;
61373;SDS011;47242;48.158;-1.586;2022-09-09T00:09:18;6.75;;;2.00;;
61373;SDS011;47242;48.158;-1.586;2022-09-09T00:11:47;6.68;;;1.90;;
61373;SDS011;47242;48.158;-1.586;2022-09-09T00:14:37;8.10;;;2.33;;
61373;SDS011;47242;48.158;-1.586;2022-09-09T00:23:06;12.25;;;2.30;;
61373;SDS011;47242;48.158;-1.586;2022-09-09T00:28:26;10.65;;;2.15;;
61373;SDS011;47242;48.158;-1.586;2022-09-09T00:30:59;11.20;;;2.67;;
61373;SDS011;47242;48.158;-1.586;2022-09-09T00:33:34;6.70;;;2.15;;
61373;SDS011;47242;48.158;-1.586;2022-09-09T00:36:00;8.25;;;1.90;;
61373;SDS011;47242;48.158;-1.586;2022-09-09T00:41:02;12.55;;;2.55;;
61373;SDS011;47242;48.158;-1.586;2022-09-09T00:43:52;13.88;;;2.63;;
61373;SDS011;47242;48.158;-1.586;2022-09-09T00:57:28;5.47;;;1.80;;
61373;SDS011;47242;48.158;-1.586;2022-09-09T01:05:39;8.18;;;2.03;;
61373;SDS011;47242;48.158;-1.586;2022-09-09T01:08:18;7.15;;;1.83;;
61373;SDS011;47242;48.158;-1.586;2022-09-09T01:10:50;9.52;;;1.85;;
61373;SDS011;47242;48.158;-1.586;2022-09-09T01:13:28;8.18;;;1.85;;
61373;SDS011;47242;48.158;-1.586;2022-09-09T01:15:56;11.57;;;2.45;;
61373;SDS011;47242;48.158;-1.586;2022-09-09T01:18:26;11.73;;;2.20;;
61373;SDS011;47242;48.158;-1.586;2022-09-09T01:26:51;12.18;;;2.22;;
61373;SDS011;47242;48.158;-1.586;2022-09-09T01:29:20;12.02;;;2.13;;
61373;SDS011;47242;48.158;-1.586;2022-09-09T01:31:57;8.10;;;2.10;;
61373;SDS011;47242;48.158;-1.586;2022-09-09T01:34:26;5.00;;;1.88;;
61373;SDS011;47242;48.158;-1.586;2022-09-09T01:37:06;7.63;;;2.28;;
61373;SDS011;47242;48.158;-1.586;2022-09-09T01:42:07;8.60;;;2.00;;
61373;SDS011;47242;48.158;-1.586;2022-09-09T01:47:03;5.63;;;1.90;;
61373;SDS011;47242;48.158;-1.586;2022-09-09T01:55:39;9.95;;;2.05;;
61373;SDS011;47242;48.158;-1.586;2022-09-09T02:01:00;5.35;;;1.90;;
61373;SDS011;47242;48.158;-1.586;2022-09-09T02:03:40;11.10;;;2.28;;
61373;SDS011;47242;48.158;-1.586;2022-09-09T02:06:17;7.93;;;2.38;;
61373;SDS011;47242;48.158;-1.586;2022-09-09T02:08:52;6.00;;;1.75;;
61373;SDS011;47242;48.158;-1.586;2022-09-09T02:11:25;8.30;;;2.17;;
61373;SDS011;47242;48.158;-1.586;2022-09-09T02:13:56;9.25;;;2.03;;
61373;SDS011;47242;48.158;-1.586;2022-09-09T02:19:17;5.90;;;1.85;;
61373;SDS011;47242;48.158;-1.586;2022-09-09T02:22:01;8.82;;;2.40;;
61373;SDS011;47242;48.158;-1.586;2022-09-09T02:24:27;8.93;;;2.08;;
61373;SDS011;47242;48.158;-1.586;2022-09-09T02:26:54;7.80;;;1.77;;
61373;SDS011;47242;48.158;-1.586;2022-09-09T02:29:24;5.15;;;1.65;;
61373;SDS011;47242;48.158;-1.586;2022-09-09T02:31:52;9.93;;;1.95;;
61373;SDS011;47242;48.158;-1.586;2022-09-09T02:34:23;9.95;;;1.92;;
61373;SDS011;47242;48.158;-1.586;2022-09-09T02:36:49;9.35;;;2.33;;
61373;SDS011;47242;48.158;-1.586;2022-09-09T02:39:18;12.02;;;2.08;;
61373;SDS011;47242;48.158;-1.586;2022-09-09T02:41:56;7.95;;;1.85;;
61373;SDS011;47242;48.158;-1.586;2022-09-09T02:44:22;6.47;;;1.60;;
61373;SDS011;47242;48.158;-1.586;2022-09-09T02:49:51;9.82;;;2.65;;
61373;SDS011;47242;48.158;-1.586;2022-09-09T02:52:22;9.75;;;1.70;;
61373;SDS011;47242;48.158;-1.586;2022-09-09T02:54:57;11.23;;;2.17;;
61373;SDS011;47242;48.158;-1.586;2022-09-09T02:57:26;6.93;;;1.65;;
61373;SDS011;47242;48.158;-1.586;2022-09-09T02:59:56;9.38;;;1.67;;
61373;SDS011;47242;48.158;-1.586;2022-09-09T03:02:23;6.75;;;1.90;;
61373;SDS011;47242;48.158;-1.586;2022-09-09T03:04:50;7.07;;;1.30;;
61373;SDS011;47242;48.158;-1.586;2022-09-09T03:07:17;6.13;;;2.30;;
61373;SDS011;47242;48.158;-1.586;2022-09-09T03:09:43;4.78;;;1.70;;
61373;SDS011;47242;48.158;-1.586;2022-09-09T03:12:10;3.40;;;1.27;;
61373;SDS011;47242;48.158;-1.586;2022-09-09T03:14:36;7.38;;;1.90;;
61373;SDS011;47242;48.158;-1.586;2022-09-09T03:17:03;5.55;;;1.73;;
61373;SDS011;47242;48.158;-1.586;2022-09-09T03:19:30;6.05;;;1.73;;
61373;SDS011;47242;48.158;-1.586;2022-09-09T03:21:56;5.20;;;1.88;;
61373;SDS011;47242;48.158;-1.586;2022-09-09T03:24:23;7.15;;;1.67;;
61373;SDS011;47242;48.158;-1.586;2022-09-09T03:26:49;6.10;;;1.67;;
61373;SDS011;47242;48.158;-1.586;2022-09-09T03:29:15;6.45;;;2.20;;
61373;SDS011;47242;48.158;-1.586;2022-09-09T03:31:43;5.63;;;1.70;;
61373;SDS011;47242;48.158;-1.586;2022-09-09T03:34:09;7.15;;;1.60;;
61373;SDS011;47242;48.158;-1.586;2022-09-09T03:36:35;6.03;;;1.45;;
61373;SDS011;47242;48.158;-1.586;2022-09-09T03:39:02;5.65;;;1.30;;
61373;SDS011;47242;48.158;-1.586;2022-09-09T03:41:28;4.40;;;1.45;;
61373;SDS011;47242;48.158;-1.586;2022-09-09T03:43:54;9.77;;;1.90;;
61373;SDS011;47242;48.158;-1.586;2022-09-09T03:46:20;7.22;;;1.98;;
61373;SDS011;47242;48.158;-1.586;2022-09-09T03:48:47;6.60;;;1.77;;
61373;SDS011;47242;48.158;-1.586;2022-09-09T03:51:13;3.58;;;1.40;;
61373;SDS011;47242;48.158;-1.586;2022-09-09T03:53:39;7.28;;;1.75;;
61373;SDS011;47242;48.158;-1.586;2022-09-09T03:56:05;4.90;;;1.35;;
61373;SDS011;47242;48.158;-1.586;2022-09-09T03:58:35;6.00;;;1.60;;
61373;SDS011;47242;48.158;-1.586;2022-09-09T04:01:06;4.65;;;1.45;;
61373;SDS011;47242;48.158;-1.586;2022-09-09T04:03:38;3.90;;;1.35;;
61373;SDS011;47242;48.158;-1.586;2022-09-09T04:06:04;7.55;;;1.55;;
61373;SDS011;47242;48.158;-1.586;2022-09-09T04:08:34;3.78;;;1.60;;
61373;SDS011;47242;48.158;-1.586;2022-09-09T04:11:01;4.90;;;2.45;;
61373;SDS011;47242;48.158;-1.586;2022-09-09T04:13:31;6.03;;;1.20;;
61373;SDS011;47242;48.158;-1.586;2022-09-09T04:16:00;7.93;;;1.42;;
61373;SDS011;47242;48.158;-1.586;2022-09-09T04:18:28;8.15;;;1.70;;
61373;SDS011;47242;48.158;-1.586;2022-09-09T04:20:54;5.03;;;1.38;;
61373;SDS011;47242;48.158;-1.586;2022-09-09T04:23:22;7.93;;;1.60;;
61373;SDS011;47242;48.158;-1.586;2022-09-09T04:25:52;4.25;;;1.63;;
61373;SDS011;47242;48.158;-1.586;2022-09-09T04:30:48;6.53;;;1.38;;
61373;SDS011;47242;48.158;-1.586;2022-09-09T04:33:14;8.52;;;2.13;;
61373;SDS011;47242;48.158;-1.586;2022-09-09T04:35:47;5.68;;;1.40;;
61373;SDS011;47242;48.158;-1.586;2022-09-09T04:38:13;5.30;;;1.33;;
61373;SDS011;47242;48.158;-1.586;2022-09-09T04:40:46;3.25;;;1.67;;
61373;SDS011;47242;48.158;-1.586;2022-09-09T04:43:12;4.07;;;1.42;;
61373;SDS011;47242;48.158;-1.586;2022-09-09T04:45:39;4.30;;;1.55;;
61373;SDS011;47242;48.158;-1.586;2022-09-09T04:48:06;8.32;;;1.60;;
61373;SDS011;47242;48.158;-1.586;2022-09-09T04:50:32;4.05;;;1.80;;
61373;SDS011;47242;48.158;-1.586;2022-09-09T04:53:02;5.50;;;1.58;;
61373;SDS011;47242;48.158;-1.586;2022-09-09T04:55:29;9.15;;;1.70;;
61373;SDS011;47242;48.158;-1.586;2022-09-09T04:57:56;11.23;;;2.17;;
61373;SDS011;47242;48.158;-1.586;2022-09-09T05:00:22;2.17;;;1.38;;
61373;SDS011;47242;48.158;-1.586;2022-09-09T05:02:48;9.27;;;1.92;;
61373;SDS011;47242;48.158;-1.586;2022-09-09T05:05:14;5.60;;;1.67;;
61373;SDS011;47242;48.158;-1.586;2022-09-09T05:07:40;5.80;;;1.60;;
61373;SDS011;47242;48.158;-1.586;2022-09-09T05:10:06;9.18;;;1.73;;
61373;SDS011;47242;48.158;-1.586;2022-09-09T05:12:32;4.15;;;1.17;;
61373;SDS011;47242;48.158;-1.586;2022-09-09T05:14:58;7.00;;;1.83;;
61373;SDS011;47242;48.158;-1.586;2022-09-09T05:17:24;6.25;;;1.42;;
61373;SDS011;47242;48.158;-1.586;2022-09-09T05:19:49;6.72;;;1.52;;
61373;SDS011;47242;48.158;-1.586;2022-09-09T05:22:21;8.68;;;2.55;;
61373;SDS011;47242;48.158;-1.586;2022-09-09T05:24:48;4.03;;;2.25;;
61373;SDS011;47242;48.158;-1.586;2022-09-09T05:27:16;4.22;;;1.63;;
61373;SDS011;47242;48.158;-1.586;2022-09-09T05:29:55;6.32;;;1.90;;
61373;SDS011;47242;48.158;-1.586;2022-09-09T05:32:21;4.05;;;1.60;;
61373;SDS011;47242;48.158;-1.586;2022-09-09T05:34:47;6.20;;;1.50;;
61373;SDS011;47242;48.158;-1.586;2022-09-09T05:37:13;11.65;;;1.83;;
61373;SDS011;47242;48.158;-1.586;2022-09-09T05:39:38;9.18;;;1.98;;
61373;SDS011;47242;48.158;-1.586;2022-09-09T05:42:04;5.72;;;1.90;;
61373;SDS011;47242;48.158;-1.586;2022-09-09T05:44:30;8.05;;;1.67;;
61373;SDS011;47242;48.158;-1.586;2022-09-09T05:47:04;5.53;;;1.80;;
61373;SDS011;47242;48.158;-1.586;2022-09-09T05:49:30;7.13;;;2.05;;
61373;SDS011;47242;48.158;-1.586;2022-09-09T05:51:56;4.70;;;1.67;;
61373;SDS011;47242;48.158;-1.586;2022-09-09T05:54:22;5.28;;;1.25;;
61373;SDS011;47242;48.158;-1.586;2022-09-09T05:56:48;9.88;;;1.92;;
61373;SDS011;47242;48.158;-1.586;2022-09-09T05:59:15;5.85;;;2.70;;
61373;SDS011;47242;48.158;-1.586;2022-09-09T06:01:41;6.10;;;1.73;;
61373;SDS011;47242;48.158;-1.586;2022-09-09T06:04:07;20.38;;;2.67;;
61373;SDS011;47242;48.158;-1.586;2022-09-09T06:06:34;5.28;;;2.05;;
61373;SDS011;47242;48.158;-1.586;2022-09-09T06:09:03;7.45;;;1.60;;
61373;SDS011;47242;48.158;-1.586;2022-09-09T06:11:34;8.02;;;2.05;;
61373;SDS011;47242;48.158;-1.586;2022-09-09T06:14:02;5.13;;;1.35;;
61373;SDS011;47242;48.158;-1.586;2022-09-09T06:16:28;6.28;;;1.70;;
61373;SDS011;47242;48.158;-1.586;2022-09-09T06:18:55;6.07;;;1.67;;
61373;SDS011;47242;48.158;-1.586;2022-09-09T06:21:26;5.93;;;2.22;;
61373;SDS011;47242;48.158;-1.586;2022-09-09T06:23:58;9.75;;;1.98;;
61373;SDS011;47242;48.158;-1.586;2022-09-09T06:26:33;13.70;;;2.35;;
61373;SDS011;47242;48.158;-1.586;2022-09-09T06:29:01;8.93;;;1.95;;
61373;SDS011;47242;48.158;-1.586;2022-09-09T06:31:29;7.28;;;2.10;;
61373;SDS011;47242;48.158;-1.586;2022-09-09T06:33:56;4.80;;;1.65;;
61373;SDS011;47242;48.158;-1.586;2022-09-09T06:38:50;10.88;;;2.08;;
61373;SDS011;47242;48.158;-1.586;2022-09-09T06:41:17;4.05;;;1.77;;
61373;SDS011;47242;48.158;-1.586;2022-09-09T06:46:13;5.47;;;2.10;;
61373;SDS011;47242;48.158;-1.586;2022-09-09T06:48:41;6.95;;;1.92;;
61373;SDS011;47242;48.158;-1.586;2022-09-09T06:51:10;7.82;;;2.10;;
61373;SDS011;47242;48.158;-1.586;2022-09-09T06:53:38;13.35;;;2.13;;
61373;SDS011;47242;48.158;-1.586;2022-09-09T06:58:55;10.57;;;2.33;;
61373;SDS011;47242;48.158;-1.586;2022-09-09T07:01:24;10.90;;;3.03;;
61373;SDS011;47242;48.158;-1.586;2022-09-09T07:03:53;12.07;;;2.50;;
61373;SDS011;47242;48.158;-1.586;2022-09-09T07:06:23;11.95;;;2.47;;
61373;SDS011;47242;48.158;-1.586;2022-09-09T07:08:57;8.63;;;2.00;;
61373;SDS011;47242;48.158;-1.586;2022-09-09T07:11:29;6.97;;;2.03;;
61373;SDS011;47242;48.158;-1.586;2022-09-09T07:13:57;6.07;;;1.70;;
61373;SDS011;47242;48.158;-1.586;2022-09-09T07:16:24;8.43;;;2.00;;
61373;SDS011;47242;48.158;-1.586;2022-09-09T07:18:52;11.80;;;1.98;;
61373;SDS011;47242;48.158;-1.586;2022-09-09T07:23:49;7.78;;;1.80;;
61373;SDS011;47242;48.158;-1.586;2022-09-09T07:26:16;4.57;;;1.50;;
61373;SDS011;47242;48.158;-1.586;2022-09-09T07:28:46;6.63;;;2.22;;
61373;SDS011;47242;48.158;-1.586;2022-09-09T07:31:14;7.00;;;2.00;;
61373;SDS011;47242;48.158;-1.586;2022-09-09T07:33:45;5.20;;;1.88;;
61373;SDS011;47242;48.158;-1.586;2022-09-09T07:36:17;7.88;;;1.75;;
61373;SDS011;47242;48.158;-1.586;2022-09-09T07:38:48;10.32;;;2.33;;
61373;SDS011;47242;48.158;-1.586;2022-09-09T07:41:19;5.70;;;1.50;;
61373;SDS011;47242;48.158;-1.586;2022-09-09T07:43:49;8.57;;;1.75;;
61373;SDS011;47242;48.158;-1.586;2022-09-09T07:46:16;6.20;;;1.88;;
61373;SDS011;47242;48.158;-1.586;2022-09-09T07:48:47;8.15;;;1.75;;
61373;SDS011;47242;48.158;-1.586;2022-09-09T07:51:19;5.43;;;1.88;;
61373;SDS011;47242;48.158;-1.586;2022-09-09T07:53:47;7.57;;;1.80;;
61373;SDS011;47242;48.158;-1.586;2022-09-09T07:56:16;7.90;;;1.33;;
61373;SDS011;47242;48.158;-1.586;2022-09-09T07:58:46;5.18;;;1.35;;
61373;SDS011;47242;48.158;-1.586;2022-09-09T08:03:52;5.28;;;1.20;;
61373;SDS011;47242;48.158;-1.586;2022-09-09T08:06:19;5.72;;;1.40;;
61373;SDS011;47242;48.158;-1.586;2022-09-09T08:08:45;7.32;;;1.90;;
61373;SDS011;47242;48.158;-1.586;2022-09-09T08:11:15;3.92;;;1.15;;
61373;SDS011;47242;48.158;-1.586;2022-09-09T08:13:42;5.05;;;1.75;;
61373;SDS011;47242;48.158;-1.586;2022-09-09T08:16:10;5.35;;;1.30;;
61373;SDS011;47242;48.158;-1.586;2022-09-09T08:18:38;9.90;;;1.93;;
61373;SDS011;47242;48.158;-1.586;2022-09-09T08:21:11;6.82;;;1.45;;
61373;SDS011;47242;48.158;-1.586;2022-09-09T08:23:39;6.15;;;1.92;;
61373;SDS011;47242;48.158;-1.586;2022-09-09T08:26:12;6.10;;;1.35;;
61373;SDS011;47242;48.158;-1.586;2022-09-09T08:28:59;7.88;;;1.65;;
61373;SDS011;47242;48.158;-1.586;2022-09-09T08:33:56;8.65;;;1.20;;
61373;SDS011;47242;48.158;-1.586;2022-09-09T08:36:25;4.78;;;1.65;;
61373;SDS011;47242;48.158;-1.586;2022-09-09T08:38:52;7.43;;;1.40;;
61373;SDS011;47242;48.158;-1.586;2022-09-09T08:41:40;5.57;;;1.33;;
61373;SDS011;47242;48.158;-1.586;2022-09-09T08:47:03;10.95;;;1.80;;
61373;SDS011;47242;48.158;-1.586;2022-09-09T08:49:57;9.02;;;1.85;;
61373;SDS011;47242;48.158;-1.586;2022-09-09T08:55:49;4.47;;;1.10;;
61373;SDS011;47242;48.158;-1.586;2022-09-09T09:00:52;6.65;;;1.50;;
61373;SDS011;47242;48.158;-1.586;2022-09-09T09:06:06;6.45;;;2.17;;
61373;SDS011;47242;48.158;-1.586;2022-09-09T09:11:18;7.22;;;6.60;;
61373;SDS011;47242;48.158;-1.586;2022-09-09T09:19:00;9.40;;;1.50;;
61373;SDS011;47242;48.158;-1.586;2022-09-09T09:21:45;7.07;;;1.10;;
61373;SDS011;47242;48.158;-1.586;2022-09-09T09:27:33;3.53;;;1.20;;
61373;SDS011;47242;48.158;-1.586;2022-09-09T09:30:14;5.72;;;1.38;;
61373;SDS011;47242;48.158;-1.586;2022-09-09T09:32:43;7.03;;;1.55;;
61373;SDS011;47242;48.158;-1.586;2022-09-09T09:35:21;5.32;;;1.20;;
61373;SDS011;47242;48.158;-1.586;2022-09-09T09:37:46;3.10;;;1.20;;
61373;SDS011;47242;48.158;-1.586;2022-09-09T09:42:53;5.60;;;1.42;;
61373;SDS011;47242;48.158;-1.586;2022-09-09T09:45:31;7.10;;;1.30;;
61373;SDS011;47242;48.158;-1.586;2022-09-09T09:47:59;5.60;;;1.58;;
61373;SDS011;47242;48.158;-1.586;2022-09-09T09:50:27;8.90;;;1.48;;
61373;SDS011;47242;48.158;-1.586;2022-09-09T09:52:54;2.95;;;1.02;;
61373;SDS011;47242;48.158;-1.586;2022-09-09T09:55:25;7.80;;;1.73;;
61373;SDS011;47242;48.158;-1.586;2022-09-09T09:57:54;4.97;;;1.20;;
61373;SDS011;47242;48.158;-1.586;2022-09-09T10:00:26;6.50;;;1.40;;
61373;SDS011;47242;48.158;-1.586;2022-09-09T10:02:52;6.43;;;1.10;;
61373;SDS011;47242;48.158;-1.586;2022-09-09T10:05:22;6.28;;;1.40;;
61373;SDS011;47242;48.158;-1.586;2022-09-09T10:08:00;4.70;;;1.27;;
61373;SDS011;47242;48.158;-1.586;2022-09-09T10:10:53;3.53;;;0.90;;
61373;SDS011;47242;48.158;-1.586;2022-09-09T10:16:11;5.88;;;1.20;;
61373;SDS011;47242;48.158;-1.586;2022-09-09T10:18:56;8.57;;;1.20;;
61373;SDS011;47242;48.158;-1.586;2022-09-09T10:26:52;6.13;;;1.20;;
61373;SDS011;47242;48.158;-1.586;2022-09-09T10:35:01;7.13;;;1.13;;
61373;SDS011;47242;48.158;-1.586;2022-09-09T10:56:42;4.40;;;0.90;;
61373;SDS011;47242;48.158;-1.586;2022-09-09T10:59:17;6.65;;;1.17;;
61373;SDS011;47242;48.158;-1.586;2022-09-09T11:01:52;5.20;;;1.95;;
61373;SDS011;47242;48.158;-1.586;2022-09-09T11:04:29;2.50;;;0.70;;
61373;SDS011;47242;48.158;-1.586;2022-09-09T11:07:00;2.97;;;0.93;;
61373;SDS011;47242;48.158;-1.586;2022-09-09T11:09:32;5.32;;;1.10;;
61373;SDS011;47242;48.158;-1.586;2022-09-09T11:12:04;4.65;;;0.80;;
61373;SDS011;47242;48.158;-1.586;2022-09-09T11:14:45;3.33;;;0.80;;
61373;SDS011;47242;48.158;-1.586;2022-09-09T11:17:20;3.83;;;1.30;;
61373;SDS011;47242;48.158;-1.586;2022-09-09T11:19:49;3.58;;;0.90;;
61373;SDS011;47242;48.158;-1.586;2022-09-09T11:22:22;3.95;;;1.00;;
61373;SDS011;47242;48.158;-1.586;2022-09-09T11:30:31;3.42;;;0.80;;
61373;SDS011;47242;48.158;-1.586;2022-09-09T11:38:31;3.45;;;0.70;;
61373;SDS011;47242;48.158;-1.586;2022-09-09T11:41:03;6.00;;;1.17;;
61373;SDS011;47242;48.158;-1.586;2022-09-09T11:46:08;3.80;;;1.00;;
61373;SDS011;47242;48.158;-1.586;2022-09-09T11:48:36;5.13;;;0.90;;
61373;SDS011;47242;48.158;-1.586;2022-09-09T11:51:11;5.20;;;1.00;;
61373;SDS011;47242;48.158;-1.586;2022-09-09T11:53:51;2.95;;;0.73;;
61373;SDS011;47242;48.158;-1.586;2022-09-09T11:56:26;4.15;;;1.45;;
61373;SDS011;47242;48.158;-1.586;2022-09-09T11:59:02;4.95;;;0.98;;
61373;SDS011;47242;48.158;-1.586;2022-09-09T12:01:37;3.92;;;0.90;;
61373;SDS011;47242;48.158;-1.586;2022-09-09T12:04:12;4.32;;;1.02;;
61373;SDS011;47242;48.158;-1.586;2022-09-09T12:06:45;4.07;;;0.75;;
61373;SDS011;47242;48.158;-1.586;2022-09-09T12:09:18;2.30;;;0.80;;
61373;SDS011;47242;48.158;-1.586;2022-09-09T12:11:48;4.95;;;1.15;;
61373;SDS011;47242;48.158;-1.586;2022-09-09T12:14:34;3.45;;;0.68;;
61373;SDS011;47242;48.158;-1.586;2022-09-09T12:19:47;4.32;;;0.85;;
61373;SDS011;47242;48.158;-1.586;2022-09-09T12:22:33;1.65;;;0.50;;
61373;SDS011;47242;48.158;-1.586;2022-09-09T12:30:37;2.50;;;1.00;;
61373;SDS011;47242;48.158;-1.586;2022-09-09T12:33:13;3.03;;;0.90;;
61373;SDS011;47242;48.158;-1.586;2022-09-09T12:35:42;3.78;;;0.65;;
61373;SDS011;47242;48.158;-1.586;2022-09-09T12:38:12;5.60;;;1.15;;
61373;SDS011;47242;48.158;-1.586;2022-09-09T12:40:53;1.70;;;0.60;;
61373;SDS011;47242;48.158;-1.586;2022-09-09T12:43:21;3.22;;;0.80;;
61373;SDS011;47242;48.158;-1.586;2022-09-09T12:45:48;3.67;;;0.57;;
61373;SDS011;47242;48.158;-1.586;2022-09-09T12:48:22;4.97;;;0.80;;
61373;SDS011;47242;48.158;-1.586;2022-09-09T12:50:53;3.72;;;0.70;;
61373;SDS011;47242;48.158;-1.586;2022-09-09T12:53:30;2.65;;;0.73;;
61373;SDS011;47242;48.158;-1.586;2022-09-09T12:56:08;3.88;;;0.93;;
61373;SDS011;47242;48.158;-1.586;2022-09-09T12:58:45;2.45;;;0.70;;
61373;SDS011;47242;48.158;-1.586;2022-09-09T13:01:24;2.60;;;0.65;;
61373;SDS011;47242;48.158;-1.586;2022-09-09T13:03:53;4.00;;;0.77;;
61373;SDS011;47242;48.158;-1.586;2022-09-09T13:06:29;5.78;;;1.05;;
61373;SDS011;47242;48.158;-1.586;2022-09-09T13:08:57;2.72;;;0.75;;
61373;SDS011;47242;48.158;-1.586;2022-09-09T13:14:04;1.75;;;0.73;;
61373;SDS011;47242;48.158;-1.586;2022-09-09T13:16:32;5.53;;;0.82;;
61373;SDS011;47242;48.158;-1.586;2022-09-09T13:19:01;3.63;;;0.80;;
61373;SDS011;47242;48.158;-1.586;2022-09-09T13:21:36;1.83;;;0.47;;
61373;SDS011;47242;48.158;-1.586;2022-09-09T13:24:21;5.40;;;1.05;;
61373;SDS011;47242;48.158;-1.586;2022-09-09T13:26:54;3.60;;;0.70;;
61373;SDS011;47242;48.158;-1.586;2022-09-09T13:29:21;6.28;;;0.60;;
61373;SDS011;47242;48.158;-1.586;2022-09-09T13:31:47;2.35;;;0.68;;
61373;SDS011;47242;48.158;-1.586;2022-09-09T13:34:28;5.50;;;1.00;;
61373;SDS011;47242;48.158;-1.586;2022-09-09T13:36:57;3.75;;;1.00;;
61373;SDS011;47242;48.158;-1.586;2022-09-09T13:39:27;4.07;;;1.25;;
61373;SDS011;47242;48.158;-1.586;2022-09-09T13:41:53;2.67;;;0.88;;
61373;SDS011;47242;48.158;-1.586;2022-09-09T13:44:27;2.92;;;0.80;;
61373;SDS011;47242;48.158;-1.586;2022-09-09T13:49:33;6.55;;;1.00;;
61373;SDS011;47242;48.158;-1.586;2022-09-09T13:52:05;3.17;;;0.90;;
61373;SDS011;47242;48.158;-1.586;2022-09-09T13:54:36;2.38;;;0.60;;
61373;SDS011;47242;48.158;-1.586;2022-09-09T13:57:03;3.78;;;1.10;;
61373;SDS011;47242;48.158;-1.586;2022-09-09T13:59:29;4.78;;;1.05;;
61373;SDS011;47242;48.158;-1.586;2022-09-09T14:01:56;4.18;;;1.08;;
61373;SDS011;47242;48.158;-1.586;2022-09-09T14:04:22;4.78;;;1.20;;
61373;SDS011;47242;48.158;-1.586;2022-09-09T14:06:49;2.00;;;1.10;;
61373;SDS011;47242;48.158;-1.586;2022-09-09T14:09:16;4.15;;;0.95;;
61373;SDS011;47242;48.158;-1.586;2022-09-09T14:11:43;4.53;;;1.10;;
61373;SDS011;47242;48.158;-1.586;2022-09-09T14:14:10;1.65;;;0.68;;
61373;SDS011;47242;48.158;-1.586;2022-09-09T14:16:36;2.45;;;0.93;;
61373;SDS011;47242;48.158;-1.586;2022-09-09T14:19:02;2.05;;;0.68;;
61373;SDS011;47242;48.158;-1.586;2022-09-09T14:21:28;3.35;;;0.85;;
61373;SDS011;47242;48.158;-1.586;2022-09-09T14:23:54;2.22;;;0.70;;
61373;SDS011;47242;48.158;-1.586;2022-09-09T14:26:23;4.57;;;0.90;;
61373;SDS011;47242;48.158;-1.586;2022-09-09T14:28:49;1.97;;;0.60;;
61373;SDS011;47242;48.158;-1.586;2022-09-09T14:31:15;1.65;;;0.50;;
61373;SDS011;47242;48.158;-1.586;2022-09-09T14:33:42;1.38;;;0.50;;
61373;SDS011;47242;48.158;-1.586;2022-09-09T14:36:09;2.28;;;0.50;;
61373;SDS011;47242;48.158;-1.586;2022-09-09T14:38:36;2.75;;;1.00;;
61373;SDS011;47242;48.158;-1.586;2022-09-09T14:41:07;3.38;;;0.57;;
61373;SDS011;47242;48.158;-1.586;2022-09-09T14:43:37;1.42;;;0.65;;
61373;SDS011;47242;48.158;-1.586;2022-09-09T14:46:13;2.50;;;0.60;;
61373;SDS011;47242;48.158;-1.586;2022-09-09T14:48:41;1.58;;;0.70;;
61373;SDS011;47242;48.158;-1.586;2022-09-09T14:51:14;3.35;;;0.80;;
61373;SDS011;47242;48.158;-1.586;2022-09-09T14:53:43;2.60;;;0.75;;
61373;SDS011;47242;48.158;-1.586;2022-09-09T14:56:11;3.15;;;1.02;;
61373;SDS011;47242;48.158;-1.586;2022-09-09T14:58:41;2.97;;;0.75;;
61373;SDS011;47242;48.158;-1.586;2022-09-09T15:01:08;5.28;;;0.70;;
61373;SDS011;47242;48.158;-1.586;2022-09-09T15:03:36;1.77;;;0.50;;
61373;SDS011;47242;48.158;-1.586;2022-09-09T15:06:06;2.40;;;0.70;;
61373;SDS011;47242;48.158;-1.586;2022-09-09T15:08:33;3.25;;;0.60;;
61373;SDS011;47242;48.158;-1.586;2022-09-09T15:11:02;3.58;;;0.68;;
61373;SDS011;47242;48.158;-1.586;2022-09-09T15:13:29;2.47;;;0.60;;
61373;SDS011;47242;48.158;-1.586;2022-09-09T15:15:54;1.92;;;0.77;;
61373;SDS011;47242;48.158;-1.586;2022-09-09T15:18:21;1.80;;;0.63;;
61373;SDS011;47242;48.158;-1.586;2022-09-09T15:20:46;3.00;;;0.60;;
61373;SDS011;47242;48.158;-1.586;2022-09-09T15:23:13;3.65;;;0.60;;
61373;SDS011;47242;48.158;-1.586;2022-09-09T15:25:49;1.85;;;0.60;;
61373;SDS011;47242;48.158;-1.586;2022-09-09T15:28:16;1.65;;;0.60;;
61373;SDS011;47242;48.158;-1.586;2022-09-09T15:30:42;2.80;;;0.70;;
61373;SDS011;47242;48.158;-1.586;2022-09-09T15:33:10;1.70;;;0.45;;
61373;SDS011;47242;48.158;-1.586;2022-09-09T15:35:35;1.33;;;0.45;;
61373;SDS011;47242;48.158;-1.586;2022-09-09T15:38:02;2.90;;;0.95;;
61373;SDS011;47242;48.158;-1.586;2022-09-09T15:40:29;1.90;;;0.60;;
61373;SDS011;47242;48.158;-1.586;2022-09-09T15:42:57;3.42;;;0.70;;
61373;SDS011;47242;48.158;-1.586;2022-09-09T15:45:23;1.40;;;0.50;;
61373;SDS011;47242;48.158;-1.586;2022-09-09T15:47:49;5.20;;;1.42;;
61373;SDS011;47242;48.158;-1.586;2022-09-09T15:50:15;5.35;;;1.38;;
61373;SDS011;47242;48.158;-1.586;2022-09-09T15:52:41;1.48;;;0.90;;
61373;SDS011;47242;48.158;-1.586;2022-09-09T15:55:06;1.80;;;0.80;;
61373;SDS011;47242;48.158;-1.586;2022-09-09T15:57:33;2.33;;;0.68;;
61373;SDS011;47242;48.158;-1.586;2022-09-09T16:00:00;2.72;;;0.70;;
61373;SDS011;47242;48.158;-1.586;2022-09-09T16:02:27;4.35;;;0.93;;
61373;SDS011;47242;48.158;-1.586;2022-09-09T16:04:53;4.93;;;0.75;;
61373;SDS011;47242;48.158;-1.586;2022-09-09T16:07:18;2.05;;;0.75;;
61373;SDS011;47242;48.158;-1.586;2022-09-09T16:09:45;4.22;;;0.93;;
61373;SDS011;47242;48.158;-1.586;2022-09-09T16:12:11;4.03;;;0.80;;
61373;SDS011;47242;48.158;-1.586;2022-09-09T16:14:38;3.00;;;0.63;;
61373;SDS011;47242;48.158;-1.586;2022-09-09T16:17:04;4.15;;;0.90;;
61373;SDS011;47242;48.158;-1.586;2022-09-09T16:19:31;3.65;;;0.88;;
61373;SDS011;47242;48.158;-1.586;2022-09-09T16:21:57;4.68;;;0.80;;
61373;SDS011;47242;48.158;-1.586;2022-09-09T16:24:23;4.25;;;0.90;;
61373;SDS011;47242;48.158;-1.586;2022-09-09T16:26:52;5.40;;;1.25;;
61373;SDS011;47242;48.158;-1.586;2022-09-09T16:29:19;2.60;;;0.73;;
61373;SDS011;47242;48.158;-1.586;2022-09-09T16:31:47;2.55;;;0.82;;
61373;SDS011;47242;48.158;-1.586;2022-09-09T16:34:13;3.97;;;0.77;;
61373;SDS011;47242;48.158;-1.586;2022-09-09T16:36:41;2.17;;;0.80;;
61373;SDS011;47242;48.158;-1.586;2022-09-09T16:39:09;3.83;;;1.13;;
61373;SDS011;47242;48.158;-1.586;2022-09-09T16:41:36;6.38;;;1.13;;
61373;SDS011;47242;48.158;-1.586;2022-09-09T16:44:04;6.13;;;1.00;;
61373;SDS011;47242;48.158;-1.586;2022-09-09T16:46:32;3.10;;;0.70;;
61373;SDS011;47242;48.158;-1.586;2022-09-09T16:49:06;3.28;;;1.05;;
61373;SDS011;47242;48.158;-1.586;2022-09-09T16:51:38;2.70;;;0.70;;
61373;SDS011;47242;48.158;-1.586;2022-09-09T16:54:09;3.58;;;1.00;;
61373;SDS011;47242;48.158;-1.586;2022-09-09T16:56:36;3.90;;;0.70;;
61373;SDS011;47242;48.158;-1.586;2022-09-09T16:59:07;2.75;;;0.93;;
61373;SDS011;47242;48.158;-1.586;2022-09-09T17:01:35;2.72;;;0.63;;
61373;SDS011;47242;48.158;-1.586;2022-09-09T17:04:03;6.28;;;1.10;;
61373;SDS011;47242;48.158;-1.586;2022-09-09T17:06:30;6.05;;;1.10;;
61373;SDS011;47242;48.158;-1.586;2022-09-09T17:09:06;2.50;;;0.70;;
61373;SDS011;47242;48.158;-1.586;2022-09-09T17:11:34;2.95;;;0.80;;
61373;SDS011;47242;48.158;-1.586;2022-09-09T17:14:00;6.50;;;0.80;;
61373;SDS011;47242;48.158;-1.586;2022-09-09T17:16:27;6.72;;;0.75;;
61373;SDS011;47242;48.158;-1.586;2022-09-09T17:18:55;3.92;;;0.50;;
61373;SDS011;47242;48.158;-1.586;2022-09-09T17:21:22;3.95;;;1.00;;
61373;SDS011;47242;48.158;-1.586;2022-09-09T17:23:50;2.35;;;0.52;;
61373;SDS011;47242;48.158;-1.586;2022-09-09T17:26:17;2.33;;;1.27;;
61373;SDS011;47242;48.158;-1.586;2022-09-09T17:28:44;1.67;;;0.60;;
61373;SDS011;47242;48.158;-1.586;2022-09-09T17:31:11;2.28;;;1.00;;